Time;durP1;ratioP1;P1;durP2;ratioP2;P2;SDS_P1;SDS_P2;PMS_P1;PMS_P2;Temp;Humidity;BMP_temperature;BMP_pressure;BME280_temperature;BME280_humidity;BME280_pressure;Samples;Min_cycle;Max_cycle;Signal;HPM_P1;HPM_P2
2022/02/15 00:01:04;;;;;;;8.93;1.52;;;;;;;;;;6088863;23;20014;-60
2022/02/15 00:03:30;;;;;;;2.58;0.85;;;;;;;;;;6087946;23;20011;-61
2022/02/15 00:05:56;;;;;;;7.88;1.67;;;;;;;;;;6088769;23;20019;-60
2022/02/15 00:08:22;;;;;;;5.32;1.13;;;;;;;;;;6088806;23;20398;-60
2022/02/15 00:10:48;;;;;;;8.25;1.35;;;;;;;;;;6089725;23;20007;-61
2022/02/15 00:13:14;;;;;;;13.60;1.00;;;;;;;;;;6088919;23;20399;-60
2022/02/15 00:15:40;;;;;;;11.60;1.55;;;;;;;;;;6088250;23;20434;-59
2022/02/15 00:18:06;;;;;;;8.38;1.33;;;;;;;;;;6088715;23;20011;-60
2022/02/15 00:20:32;;;;;;;4.57;1.35;;;;;;;;;;6088372;23;20053;-60
2022/02/15 00:22:57;;;;;;;4.10;1.20;;;;;;;;;;6089251;23;20517;-60
2022/02/15 00:25:23;;;;;;;5.93;0.60;;;;;;;;;;6089896;23;20477;-61
2022/02/15 00:27:48;;;;;;;10.65;1.15;;;;;;;;;;6090904;23;20013;-60
2022/02/15 00:30:14;;;;;;;7.15;0.90;;;;;;;;;;6089665;23;20061;-60
2022/02/15 00:32:41;;;;;;;5.63;1.13;;;;;;;;;;6090709;23;20519;-60
2022/02/15 00:35:07;;;;;;;11.02;0.65;;;;;;;;;;6088593;23;20494;-59
2022/02/15 00:37:32;;;;;;;6.38;0.90;;;;;;;;;;6090608;23;20034;-60
2022/02/15 00:39:58;;;;;;;7.72;1.48;;;;;;;;;;6090104;23;20346;-60
2022/02/15 00:42:23;;;;;;;10.35;1.05;;;;;;;;;;6090426;23;20010;-61
2022/02/15 00:44:49;;;;;;;11.07;0.98;;;;;;;;;;6089919;23;20034;-60
2022/02/15 00:47:16;;;;;;;4.95;1.15;;;;;;;;;;6089648;23;20033;-61
2022/02/15 00:49:41;;;;;;;9.35;1.25;;;;;;;;;;6090264;23;20010;-60
2022/02/15 00:52:07;;;;;;;9.70;1.30;;;;;;;;;;6087504;23;20025;-61
2022/02/15 00:54:33;;;;;;;8.68;0.93;;;;;;;;;;6089565;23;20029;-59
2022/02/15 00:56:59;;;;;;;6.85;1.40;;;;;;;;;;6090643;23;20442;-61
2022/02/15 00:59:24;;;;;;;6.72;0.77;;;;;;;;;;6087274;23;20320;-60
2022/02/15 01:01:50;;;;;;;6.78;1.33;;;;;;;;;;6088122;23;20018;-61
2022/02/15 01:04:15;;;;;;;7.57;1.23;;;;;;;;;;6090709;23;20386;-60
2022/02/15 01:06:41;;;;;;;13.95;1.52;;;;;;;;;;6090645;23;20082;-61
2022/02/15 01:09:07;;;;;;;12.82;1.25;;;;;;;;;;6089979;23;20007;-60
2022/02/15 01:11:32;;;;;;;4.70;1.27;;;;;;;;;;6090137;23;20033;-61
2022/02/15 01:13:58;;;;;;;9.00;1.10;;;;;;;;;;6090278;23;19998;-60
2022/02/15 01:16:23;;;;;;;10.82;1.40;;;;;;;;;;6088255;23;20350;-60
2022/02/15 01:18:49;;;;;;;2.58;1.02;;;;;;;;;;6090818;23;20346;-60
2022/02/15 01:21:14;;;;;;;7.95;1.10;;;;;;;;;;6089993;23;20362;-60
2022/02/15 01:23:40;;;;;;;7.13;1.75;;;;;;;;;;6089690;23;20006;-61
2022/02/15 01:26:06;;;;;;;4.80;0.90;;;;;;;;;;6089749;23;20018;-60
2022/02/15 01:28:34;;;;;;;7.28;0.68;;;;;;;;;;6091094;23;20089;-60
2022/02/15 01:31:01;;;;;;;8.20;1.58;;;;;;;;;;6089991;23;20015;-60
2022/02/15 01:33:26;;;;;;;8.85;1.40;;;;;;;;;;6090280;23;20170;-60
2022/02/15 01:35:52;;;;;;;9.40;1.48;;;;;;;;;;6089489;23;20572;-61
2022/02/15 01:38:17;;;;;;;4.88;1.10;;;;;;;;;;6090126;23;20015;-60
2022/02/15 01:40:43;;;;;;;13.38;1.20;;;;;;;;;;6090554;23;20382;-61
2022/02/15 01:43:09;;;;;;;5.38;1.52;;;;;;;;;;6090252;23;20434;-60
2022/02/15 01:45:34;;;;;;;13.38;1.73;;;;;;;;;;6089463;23;20006;-60
2022/02/15 01:48:00;;;;;;;12.82;1.23;;;;;;;;;;6088170;23;20030;-61
2022/02/15 01:50:25;;;;;;;9.65;1.33;;;;;;;;;;6089376;23;20346;-60
2022/02/15 01:52:51;;;;;;;9.00;1.77;;;;;;;;;;6137133;23;20100;-60
2022/02/15 01:55:17;;;;;;;6.03;1.35;;;;;;;;;;6147907;23;20020;-60
2022/02/15 01:57:43;;;;;;;8.18;1.58;;;;;;;;;;6148831;23;20005;-59
2022/02/15 02:00:13;;;;;;;8.43;1.17;;;;;;;;;;6148210;23;20504;-61
2022/02/15 02:02:38;;;;;;;4.22;0.80;;;;;;;;;;6147282;23;20010;-60
2022/02/15 02:07:48;;;;;;;5.47;1.10;;;;;;;;;;6149246;23;20464;-61
2022/02/15 02:10:15;;;;;;;6.97;1.55;;;;;;;;;;6122200;23;20076;-60
2022/02/15 02:12:40;;;;;;;9.32;1.30;;;;;;;;;;6148475;23;20005;-60
2022/02/15 02:15:07;;;;;;;7.60;1.58;;;;;;;;;;6148136;23;20014;-61
2022/02/15 02:17:34;;;;;;;7.80;1.23;;;;;;;;;;6148267;23;20356;-60
2022/02/15 02:20:00;;;;;;;15.15;1.83;;;;;;;;;;6149933;23;20112;-60
2022/02/15 02:22:28;;;;;;;8.70;1.15;;;;;;;;;;6148203;23;20414;-60
2022/02/15 02:24:56;;;;;;;9.77;1.88;;;;;;;;;;6122280;23;20429;-61
2022/02/15 02:27:27;;;;;;;11.48;1.60;;;;;;;;;;6147631;23;20002;-60
2022/02/15 02:29:53;;;;;;;8.07;1.30;;;;;;;;;;6148429;23;20001;-61
2022/02/15 02:32:20;;;;;;;6.85;1.67;;;;;;;;;;6121532;23;20002;-61
2022/02/15 02:34:47;;;;;;;11.98;2.33;;;;;;;;;;6148893;23;20402;-61
2022/02/15 02:37:13;;;;;;;6.32;1.35;;;;;;;;;;6147427;23;20385;-60
2022/02/15 02:39:43;;;;;;;12.73;2.42;;;;;;;;;;6148268;23;20060;-60
2022/02/15 02:42:08;;;;;;;2.22;1.00;;;;;;;;;;6147391;23;20005;-60
2022/02/15 02:44:34;;;;;;;7.40;1.15;;;;;;;;;;6148457;23;20045;-60
2022/02/15 02:46:59;;;;;;;5.10;1.15;;;;;;;;;;6148413;23;20075;-60
2022/02/15 02:49:25;;;;;;;4.35;1.10;;;;;;;;;;6147305;23;20087;-61
2022/02/15 02:51:50;;;;;;;3.28;0.90;;;;;;;;;;6146975;23;20111;-61
2022/02/15 02:54:15;;;;;;;4.82;1.30;;;;;;;;;;6120292;23;20009;-61
2022/02/15 02:56:41;;;;;;;5.47;1.42;;;;;;;;;;6147705;23;20016;-60
2022/02/15 02:59:07;;;;;;;9.27;1.23;;;;;;;;;;6148636;23;20009;-61
2022/02/15 03:01:32;;;;;;;7.53;0.88;;;;;;;;;;6147324;23;20044;-61
2022/02/15 03:03:58;;;;;;;8.85;1.17;;;;;;;;;;6148105;23;20440;-61
2022/02/15 03:06:23;;;;;;;3.72;0.75;;;;;;;;;;6147419;23;20261;-61
2022/02/15 03:08:49;;;;;;;3.28;0.90;;;;;;;;;;6148662;23;20388;-60
2022/02/15 03:11:14;;;;;;;6.43;1.20;;;;;;;;;;6147545;23;20005;-60
2022/02/15 03:13:40;;;;;;;9.32;1.00;;;;;;;;;;6148937;23;20032;-60
2022/02/15 03:16:05;;;;;;;6.60;1.13;;;;;;;;;;6147406;23;20429;-60
2022/02/15 03:18:30;;;;;;;7.13;1.00;;;;;;;;;;6147597;23;20016;-61
2022/02/15 03:20:56;;;;;;;14.25;1.52;;;;;;;;;;6147296;23;20393;-61
2022/02/15 03:23:21;;;;;;;3.67;1.15;;;;;;;;;;6147313;23;20077;-60
2022/02/15 03:26:36;;;;;;;8.63;1.08;;;;;;;;;;5096811;27;20417;-61
2022/02/15 03:29:02;;;;;;;3.90;0.75;;;;;;;;;;5094640;28;20032;-60
2022/02/15 03:31:27;;;;;;;4.75;0.60;;;;;;;;;;5096799;28;20032;-60
2022/02/15 03:33:53;;;;;;;2.97;0.60;;;;;;;;;;5095785;28;20036;-60
2022/02/15 03:36:19;;;;;;;6.60;0.85;;;;;;;;;;5095293;28;20027;-60
2022/02/15 03:38:45;;;;;;;4.82;0.80;;;;;;;;;;5093485;28;20036;-61
2022/02/15 03:43:54;;;;;;;2.53;0.50;;;;;;;;;;5099960;28;20120;-59
2022/02/15 03:46:23;;;;;;;5.10;0.80;;;;;;;;;;5090472;28;20493;-61
2022/02/15 03:48:50;;;;;;;9.45;0.93;;;;;;;;;;5094884;28;20176;-60
2022/02/15 03:51:15;;;;;;;5.97;1.08;;;;;;;;;;5089684;28;20063;-61
2022/02/15 03:53:41;;;;;;;9.02;0.82;;;;;;;;;;5092203;28;20330;-60
2022/02/15 03:56:09;;;;;;;5.80;0.70;;;;;;;;;;5099269;28;20043;-61
2022/02/15 03:58:35;;;;;;;7.28;0.70;;;;;;;;;;5089102;28;20165;-60
2022/02/15 04:01:01;;;;;;;6.63;0.95;;;;;;;;;;5097244;28;20557;-60
2022/02/15 04:03:27;;;;;;;3.50;0.82;;;;;;;;;;5097415;28;20187;-61
2022/02/15 04:05:53;;;;;;;7.53;0.98;;;;;;;;;;5096747;28;20115;-60
2022/02/15 04:08:19;;;;;;;11.68;0.88;;;;;;;;;;5091602;28;20032;-61
2022/02/15 04:10:44;;;;;;;11.73;1.30;;;;;;;;;;5095496;28;20104;-60
2022/02/15 04:13:10;;;;;;;3.22;0.98;;;;;;;;;;5095625;28;20039;-59
2022/02/15 04:15:35;;;;;;;4.75;0.70;;;;;;;;;;5090941;28;20044;-60
2022/02/15 04:18:01;;;;;;;3.28;0.65;;;;;;;;;;5092378;28;20024;-60
2022/02/15 04:20:26;;;;;;;9.90;0.95;;;;;;;;;;5090148;28;20115;-59
2022/02/15 04:22:52;;;;;;;5.40;1.60;;;;;;;;;;5094692;28;20042;-60
2022/02/15 04:25:17;;;;;;;4.45;0.70;;;;;;;;;;5098006;28;20056;-61
2022/02/15 04:27:43;;;;;;;2.47;0.60;;;;;;;;;;5094708;28;20103;-61
2022/02/15 04:30:09;;;;;;;2.53;0.93;;;;;;;;;;5088237;28;20459;-61
2022/02/15 04:32:35;;;;;;;2.58;0.57;;;;;;;;;;5088748;28;20120;-60
2022/02/15 04:35:00;;;;;;;8.73;0.90;;;;;;;;;;5074827;28;20040;-60
2022/02/15 04:37:26;;;;;;;7.72;1.08;;;;;;;;;;5089441;28;20098;-61
2022/02/15 04:39:52;;;;;;;2.20;0.65;;;;;;;;;;5088269;28;20035;-61
2022/02/15 04:42:18;;;;;;;2.13;0.52;;;;;;;;;;5085835;28;20039;-60
2022/02/15 04:44:43;;;;;;;13.90;0.73;;;;;;;;;;5078871;28;20052;-60
2022/02/15 04:47:09;;;;;;;4.90;0.77;;;;;;;;;;5077922;28;20056;-59
2022/02/15 04:49:34;;;;;;;5.68;1.08;;;;;;;;;;5080576;28;20758;-60
2022/02/15 04:52:00;;;;;;;7.43;1.05;;;;;;;;;;5075919;28;20046;-60
2022/02/15 04:54:26;;;;;;;8.02;1.23;;;;;;;;;;5075230;28;20564;-60
2022/02/15 04:56:52;;;;;;;7.57;1.02;;;;;;;;;;5074080;28;20261;-60
2022/02/15 04:59:19;;;;;;;5.03;0.82;;;;;;;;;;5080343;28;20036;-60
2022/02/15 05:01:44;;;;;;;6.47;1.17;;;;;;;;;;5080728;28;20036;-59
2022/02/15 05:04:48;;;;;;;8.80;0.95;;;;;;;;;;5082553;28;20092;-60
2022/02/15 05:06:55;;;;;;;3.60;0.65;;;;;;;;;;5076189;28;20070;-60
2022/02/15 05:09:21;;;;;;;5.55;0.98;;;;;;;;;;5083476;28;20478;-60
2022/02/15 05:11:47;;;;;;;3.58;1.20;;;;;;;;;;5077541;28;20020;-59
2022/02/15 05:14:12;;;;;;;2.60;0.63;;;;;;;;;;5073458;28;20123;-60
2022/02/15 05:16:38;;;;;;;3.85;0.82;;;;;;;;;;5079714;28;20387;-61
2022/02/15 05:19:03;;;;;;;4.47;0.93;;;;;;;;;;5079128;28;20034;-60
2022/02/15 05:21:29;;;;;;;7.60;0.88;;;;;;;;;;5074440;28;20444;-60
2022/02/15 05:23:54;;;;;;;4.50;1.67;;;;;;;;;;5077554;28;20522;-60
2022/02/15 05:26:20;;;;;;;9.60;1.23;;;;;;;;;;5079271;28;20360;-61
2022/02/15 05:28:45;;;;;;;7.88;1.38;;;;;;;;;;5081578;28;20085;-60
2022/02/15 05:31:10;;;;;;;8.00;1.48;;;;;;;;;;5075069;28;20405;-61
2022/02/15 05:33:36;;;;;;;9.00;1.40;;;;;;;;;;5075531;28;20028;-61
2022/02/15 05:36:02;;;;;;;12.73;1.13;;;;;;;;;;5074055;28;20068;-60
2022/02/15 05:38:28;;;;;;;8.52;1.25;;;;;;;;;;5076174;28;20329;-59
2022/02/15 05:40:53;;;;;;;11.18;1.33;;;;;;;;;;5080909;28;20274;-60
2022/02/15 05:43:19;;;;;;;13.82;1.73;;;;;;;;;;5083781;28;20564;-60
2022/02/15 05:45:44;;;;;;;8.55;1.10;;;;;;;;;;5078102;28;20028;-60
2022/02/15 05:48:10;;;;;;;16.48;1.75;;;;;;;;;;5078197;28;20039;-61
2022/02/15 05:50:51;;;;;;;21.02;2.15;;;;;;;;;;5082463;28;20035;-60
2022/02/15 05:53:28;;;;;;;11.88;2.17;;;;;;;;;;5079103;28;20055;-60
2022/02/15 05:55:58;;;;;;;9.48;1.55;;;;;;;;;;5080658;28;20201;-60
2022/02/15 05:58:24;;;;;;;19.15;2.55;;;;;;;;;;5083189;28;20129;-60
2022/02/15 06:00:50;;;;;;;15.00;1.55;;;;;;;;;;5077071;28;20059;-60
2022/02/15 06:05:59;;;;;;;13.52;2.20;;;;;;;;;;5079300;28;20395;-59
2022/02/15 06:08:24;;;;;;;16.65;1.60;;;;;;;;;;5080530;28;20032;-59
2022/02/15 06:10:51;;;;;;;17.88;2.38;;;;;;;;;;5075910;28;20038;-61
2022/02/15 06:13:17;;;;;;;25.23;2.22;;;;;;;;;;5080196;28;20278;-61
2022/02/15 06:15:43;;;;;;;16.30;1.52;;;;;;;;;;5079209;28;20327;-59
2022/02/15 06:18:09;;;;;;;18.92;2.33;;;;;;;;;;5078415;28;20086;-59
2022/02/15 06:20:35;;;;;;;16.63;2.03;;;;;;;;;;5078290;28;20028;-60
2022/02/15 06:23:01;;;;;;;12.63;2.65;;;;;;;;;;5082353;28;20028;-60
2022/02/15 06:25:26;;;;;;;19.23;2.60;;;;;;;;;;5079452;28;20052;-60
2022/02/15 06:27:52;;;;;;;23.40;2.72;;;;;;;;;;5077937;28;20032;-60
2022/02/15 06:30:17;;;;;;;21.60;3.47;;;;;;;;;;5076051;28;20028;-59
2022/02/15 06:32:43;;;;;;;46.53;4.22;;;;;;;;;;5080681;28;20036;-59
2022/02/15 06:35:09;;;;;;;32.08;3.72;;;;;;;;;;5076393;28;20028;-60
2022/02/15 06:37:36;;;;;;;22.17;3.97;;;;;;;;;;5079500;28;20126;-61
2022/02/15 06:40:03;;;;;;;12.52;2.72;;;;;;;;;;5076444;28;20036;-60
2022/02/15 06:42:33;;;;;;;22.38;4.15;;;;;;;;;;5080667;28;20032;-61
2022/02/15 06:44:59;;;;;;;49.00;4.68;;;;;;;;;;5076062;28;20425;-60
2022/02/15 06:47:25;;;;;;;34.35;3.63;;;;;;;;;;5073799;28;20036;-60
2022/02/15 06:49:51;;;;;;;41.72;6.15;;;;;;;;;;5070620;28;20028;-60
2022/02/15 06:52:16;;;;;;;34.65;4.05;;;;;;;;;;5076498;28;20028;-60
2022/02/15 06:54:42;;;;;;;28.52;4.32;;;;;;;;;;5076345;28;20040;-59
2022/02/15 06:57:07;;;;;;;31.73;3.28;;;;;;;;;;5075042;28;20367;-60
2022/02/15 06:59:33;;;;;;;20.92;3.35;;;;;;;;;;5078420;28;20031;-57
2022/02/15 07:01:59;;;;;;;30.90;3.72;;;;;;;;;;5079496;28;20035;-60
2022/02/15 07:04:24;;;;;;;29.35;5.10;;;;;;;;;;5081396;28;20093;-60
2022/02/15 07:06:49;;;;;;;25.67;3.20;;;;;;;;;;5072457;28;20032;-60
2022/02/15 07:09:15;;;;;;;27.77;3.15;;;;;;;;;;5083256;28;20035;-60
2022/02/15 07:11:40;;;;;;;28.60;4.13;;;;;;;;;;5080957;28;20035;-59
2022/02/15 07:14:06;;;;;;;31.70;3.63;;;;;;;;;;5077453;28;20067;-60
2022/02/15 07:16:31;;;;;;;23.33;3.40;;;;;;;;;;5074979;28;20040;-59
2022/02/15 07:18:58;;;;;;;31.45;3.95;;;;;;;;;;5076578;28;20449;-60
2022/02/15 07:21:24;;;;;;;37.03;4.47;;;;;;;;;;5079816;28;20142;-60
2022/02/15 07:23:49;;;;;;;47.50;5.18;;;;;;;;;;5072336;28;20571;-59
2022/02/15 07:26:15;;;;;;;32.70;5.75;;;;;;;;;;5070817;28;20480;-60
2022/02/15 07:28:40;;;;;;;35.53;3.30;;;;;;;;;;5077011;28;20114;-60
2022/02/15 07:31:06;;;;;;;46.70;4.47;;;;;;;;;;5079985;28;20055;-60
2022/02/15 07:33:32;;;;;;;61.65;5.30;;;;;;;;;;5079955;28;20127;-60
2022/02/15 07:35:57;;;;;;;26.60;3.17;;;;;;;;;;5076348;28;20054;-59
2022/02/15 07:38:23;;;;;;;44.25;4.57;;;;;;;;;;5077976;28;20046;-60
2022/02/15 07:40:48;;;;;;;21.73;3.47;;;;;;;;;;5077173;28;20527;-59
2022/02/15 07:43:14;;;;;;;43.85;6.28;;;;;;;;;;5076808;28;20051;-60
2022/02/15 07:45:40;;;;;;;29.13;4.38;;;;;;;;;;5077827;28;20422;-58
2022/02/15 07:48:06;;;;;;;39.50;5.03;;;;;;;;;;5078814;28;20043;-59
2022/02/15 07:50:32;;;;;;;46.05;5.32;;;;;;;;;;5079920;28;20035;-59
2022/02/15 07:52:57;;;;;;;33.35;5.00;;;;;;;;;;5076145;28;20494;-59
2022/02/15 07:55:23;;;;;;;37.10;4.57;;;;;;;;;;5079597;28;20062;-58
2022/02/15 07:57:49;;;;;;;22.75;4.18;;;;;;;;;;5081918;28;20032;-59
2022/02/15 08:00:21;;;;;;;41.80;4.78;;;;;;;;;;5078406;28;20147;-58
2022/02/15 08:02:48;;;;;;;39.83;4.28;;;;;;;;;;5075320;28;20043;-59
2022/02/15 08:05:14;;;;;;;35.10;4.05;;;;;;;;;;5070566;28;20036;-58
2022/02/15 08:07:39;;;;;;;33.60;4.07;;;;;;;;;;5077046;28;20414;-59
2022/02/15 08:10:05;;;;;;;37.55;5.43;;;;;;;;;;5074226;28;20043;-58
2022/02/15 08:12:31;;;;;;;60.58;6.03;;;;;;;;;;5078843;28;20546;-59
2022/02/15 08:14:57;;;;;;;38.15;4.35;;;;;;;;;;5077350;28;20032;-59
2022/02/15 08:17:23;;;;;;;35.90;5.15;;;;;;;;;;5077657;28;20040;-59
2022/02/15 08:19:49;;;;;;;49.28;3.92;;;;;;;;;;5078513;28;20322;-59
2022/02/15 08:22:15;;;;;;;41.85;4.00;;;;;;;;;;5079754;28;20490;-59
2022/02/15 08:24:41;;;;;;;42.03;3.95;;;;;;;;;;5083031;28;20570;-58
2022/02/15 08:27:06;;;;;;;27.55;3.33;;;;;;;;;;5077308;28;20032;-56
2022/02/15 08:29:32;;;;;;;40.28;4.93;;;;;;;;;;5081940;28;20062;-57
2022/02/15 08:31:58;;;;;;;31.08;5.68;;;;;;;;;;5075375;28;20024;-56
2022/02/15 08:34:24;;;;;;;46.92;5.40;;;;;;;;;;5083932;28;20111;-58
2022/02/15 08:36:50;;;;;;;30.23;4.07;;;;;;;;;;5079643;28;20139;-55
2022/02/15 08:39:16;;;;;;;42.20;4.97;;;;;;;;;;5079134;28;20028;-57
2022/02/15 08:41:42;;;;;;;27.23;3.78;;;;;;;;;;5079556;28;20600;-56
2022/02/15 08:44:08;;;;;;;50.00;4.53;;;;;;;;;;5076259;28;20027;-52
2022/02/15 08:46:33;;;;;;;35.80;4.80;;;;;;;;;;5080972;28;20037;-56
2022/02/15 08:49:02;;;;;;;59.55;5.53;;;;;;;;;;5074115;28;20040;-57
2022/02/15 08:51:28;;;;;;;32.65;3.90;;;;;;;;;;5074454;28;20072;-58
2022/02/15 08:53:54;;;;;;;40.47;4.90;;;;;;;;;;5079873;28;20112;-58
2022/02/15 08:56:21;;;;;;;38.28;4.28;;;;;;;;;;5078171;28;20202;-57
2022/02/15 08:58:48;;;;;;;36.60;3.50;;;;;;;;;;5085426;28;20035;-58
2022/02/15 09:01:14;;;;;;;40.33;4.97;;;;;;;;;;5078769;28;20032;-56
2022/02/15 09:03:39;;;;;;;17.20;2.83;;;;;;;;;;5080630;28;20427;-58
2022/02/15 09:06:05;;;;;;;26.73;4.63;;;;;;;;;;5083723;28;20056;-58
2022/02/15 09:08:31;;;;;;;35.92;4.35;;;;;;;;;;5083145;28;20572;-58
2022/02/15 09:10:56;;;;;;;18.38;2.17;;;;;;;;;;5085357;28;20159;-57
2022/02/15 09:13:22;;;;;;;47.45;4.30;;;;;;;;;;5081787;28;20027;-58
2022/02/15 09:15:47;;;;;;;51.53;6.50;;;;;;;;;;5079187;28;20036;-58
2022/02/15 09:18:13;;;;;;;46.58;4.78;;;;;;;;;;5072400;28;20233;-56
2022/02/15 09:20:38;;;;;;;47.08;4.97;;;;;;;;;;5074594;28;20040;-60
2022/02/15 09:23:05;;;;;;;28.95;3.78;;;;;;;;;;5073509;28;20119;-59
2022/02/15 09:25:31;;;;;;;22.88;3.33;;;;;;;;;;5081401;28;20425;-58
2022/02/15 09:27:57;;;;;;;31.85;4.72;;;;;;;;;;5082892;28;20039;-57
2022/02/15 09:30:23;;;;;;;28.80;4.38;;;;;;;;;;5072204;28;20036;-59
2022/02/15 09:32:48;;;;;;;37.58;6.63;;;;;;;;;;5078880;28;20039;-59
2022/02/15 09:35:14;;;;;;;32.30;4.13;;;;;;;;;;5078206;28;20016;-59
2022/02/15 09:37:40;;;;;;;35.00;3.63;;;;;;;;;;5077797;28;20040;-59
2022/02/15 09:40:06;;;;;;;41.15;4.13;;;;;;;;;;5088163;28;20036;-57
2022/02/15 09:42:34;;;;;;;38.20;3.70;;;;;;;;;;5080405;28;20035;-58
2022/02/15 09:45:00;;;;;;;37.75;4.82;;;;;;;;;;5078615;28;20032;-57
2022/02/15 09:47:27;;;;;;;38.22;5.78;;;;;;;;;;5082370;28;20513;-58
2022/02/15 09:49:53;;;;;;;42.38;4.32;;;;;;;;;;5085807;28;20027;-58
2022/02/15 09:52:24;;;;;;;38.15;5.68;;;;;;;;;;5083550;28;20031;-59
2022/02/15 09:54:52;;;;;;;41.40;5.70;;;;;;;;;;5080812;28;20032;-58
2022/02/15 09:57:19;;;;;;;37.47;5.00;;;;;;;;;;5077526;28;20608;-58
2022/02/15 09:59:46;;;;;;;22.10;3.50;;;;;;;;;;5083822;28;20499;-58
2022/02/15 10:02:17;;;;;;;27.38;4.72;;;;;;;;;;5084315;28;20028;-58
2022/02/15 10:04:43;;;;;;;28.50;4.00;;;;;;;;;;5075688;28;20064;-58
2022/02/15 10:07:09;;;;;;;26.55;3.95;;;;;;;;;;5084204;28;20063;-58
2022/02/15 10:09:35;;;;;;;26.95;4.03;;;;;;;;;;5078147;28;20060;-58
2022/02/15 10:12:06;;;;;;;30.70;4.68;;;;;;;;;;5077081;28;20522;-58
2022/02/15 10:14:38;;;;;;;45.10;6.07;;;;;;;;;;5082705;28;20043;-58
2022/02/15 10:17:07;;;;;;;28.75;3.85;;;;;;;;;;5080409;28;20036;-58
2022/02/15 10:19:33;;;;;;;29.23;4.20;;;;;;;;;;5084825;28;20067;-58
2022/02/15 10:22:00;;;;;;;31.02;4.25;;;;;;;;;;5080750;28;20074;-58
2022/02/15 10:24:29;;;;;;;30.02;3.53;;;;;;;;;;5081893;28;20501;-57
2022/02/15 10:26:58;;;;;;;34.58;5.43;;;;;;;;;;5079723;28;20042;-56
2022/02/15 10:29:24;;;;;;;37.85;4.95;;;;;;;;;;5077723;28;20032;-59
2022/02/15 10:31:55;;;;;;;32.38;3.85;;;;;;;;;;5082408;28;20032;-57
2022/02/15 10:34:21;;;;;;;32.70;5.25;;;;;;;;;;5082839;28;20422;-56
2022/02/15 10:37:04;;;;;;;37.50;3.58;;;;;;;;;;5073931;28;20047;-53
2022/02/15 10:39:52;;;;;;;35.05;5.20;;;;;;;;;;5075227;28;20413;-59
2022/02/15 10:42:21;;;;;;;29.42;4.93;;;;;;;;;;5075448;28;20042;-58
2022/02/15 10:45:08;;;;;;;37.47;5.03;;;;;;;;;;5081884;28;20528;-58
2022/02/15 10:47:45;;;;;;;37.42;3.85;;;;;;;;;;5074030;28;20033;-58
2022/02/15 10:50:15;;;;;;;52.97;3.70;;;;;;;;;;5069881;28;20115;-58
2022/02/15 10:52:41;;;;;;;27.63;4.30;;;;;;;;;;5074517;28;20234;-57
2022/02/15 10:55:08;;;;;;;18.25;2.40;;;;;;;;;;5076904;28;20085;-55
2022/02/15 10:57:38;;;;;;;29.48;3.80;;;;;;;;;;5072805;28;20115;-58
2022/02/15 11:00:10;;;;;;;30.33;3.25;;;;;;;;;;5079801;28;21071;-57
2022/02/15 11:02:41;;;;;;;37.45;5.00;;;;;;;;;;5078155;28;20410;-59
2022/02/15 11:05:11;;;;;;;42.78;4.47;;;;;;;;;;5080876;28;20051;-57
2022/02/15 11:07:38;;;;;;;43.95;4.65;;;;;;;;;;5077443;28;20824;-58
2022/02/15 11:10:25;;;;;;;28.38;4.63;;;;;;;;;;5079706;28;20079;-58
2022/02/15 11:12:58;;;;;;;28.65;5.15;;;;;;;;;;5080461;28;20035;-57
2022/02/15 11:15:30;;;;;;;24.58;3.90;;;;;;;;;;5069212;28;20393;-58
2022/02/15 11:18:07;;;;;;;31.67;3.70;;;;;;;;;;5074647;28;20096;-59
2022/02/15 11:20:50;;;;;;;26.52;4.25;;;;;;;;;;5076223;28;20035;-58
2022/02/15 11:23:27;;;;;;;33.08;3.75;;;;;;;;;;5077169;28;20394;-58
2022/02/15 11:26:13;;;;;;;31.65;4.80;;;;;;;;;;5076928;28;20547;-58
2022/02/15 11:28:49;;;;;;;30.63;5.30;;;;;;;;;;5073596;28;20038;-59
2022/02/15 11:31:34;;;;;;;35.10;4.20;;;;;;;;;;5075088;28;20040;-57
2022/02/15 11:34:04;;;;;;;37.80;4.97;;;;;;;;;;5079908;28;20085;-58
2022/02/15 11:36:30;;;;;;;39.38;4.05;;;;;;;;;;5076597;28;20040;-58
2022/02/15 11:38:58;;;;;;;13.60;3.47;;;;;;;;;;5082113;28;20494;-58
2022/02/15 11:41:29;;;;;;;33.72;4.28;;;;;;;;;;5082819;28;20044;-58
2022/02/15 11:44:05;;;;;;;43.92;4.68;;;;;;;;;;5083237;28;20027;-58
2022/02/15 11:46:35;;;;;;;30.27;3.55;;;;;;;;;;5083769;28;20035;-57
2022/02/15 11:49:12;;;;;;;27.38;3.33;;;;;;;;;;5083237;28;20024;-60
2022/02/15 11:51:38;;;;;;;39.58;3.50;;;;;;;;;;5079921;28;20555;-58
2022/02/15 11:54:09;;;;;;;50.03;4.43;;;;;;;;;;5074497;28;20040;-59
2022/02/15 11:56:35;;;;;;;33.78;3.92;;;;;;;;;;5081293;28;20036;-58
2022/02/15 11:59:11;;;;;;;14.57;2.95;;;;;;;;;;5082227;28;20035;-58
2022/02/15 12:01:37;;;;;;;33.40;3.88;;;;;;;;;;5083066;28;20115;-59
2022/02/15 12:04:08;;;;;;;24.13;2.60;;;;;;;;;;5082834;28;20028;-59
2022/02/15 12:06:37;;;;;;;16.13;2.83;;;;;;;;;;5083100;28;20035;-59
2022/02/15 12:09:03;;;;;;;17.63;2.70;;;;;;;;;;5081745;28;20028;-59
2022/02/15 12:11:31;;;;;;;29.92;3.53;;;;;;;;;;5084844;28;20477;-59
2022/02/15 12:13:56;;;;;;;29.60;3.45;;;;;;;;;;5082301;28;20020;-58
2022/02/15 12:16:23;;;;;;;17.52;3.03;;;;;;;;;;5083667;28;20032;-59
2022/02/15 12:18:49;;;;;;;32.13;3.70;;;;;;;;;;5080716;28;20024;-58
2022/02/15 12:21:15;;;;;;;30.60;3.40;;;;;;;;;;5082587;28;20127;-57
2022/02/15 12:23:42;;;;;;;24.33;3.00;;;;;;;;;;5077999;28;20394;-58
2022/02/15 12:26:08;;;;;;;39.55;3.92;;;;;;;;;;5084124;28;20127;-58
2022/02/15 12:28:34;;;;;;;23.52;3.22;;;;;;;;;;5081044;28;20595;-59
2022/02/15 12:30:59;;;;;;;26.00;3.50;;;;;;;;;;5079778;28;20044;-57
2022/02/15 12:33:35;;;;;;;37.05;4.20;;;;;;;;;;5078056;28;20036;-58
2022/02/15 12:36:01;;;;;;;29.55;3.20;;;;;;;;;;5086401;28;20039;-59
2022/02/15 12:38:39;;;;;;;23.60;3.40;;;;;;;;;;5078384;28;20403;-58
2022/02/15 12:41:16;;;;;;;17.98;2.33;;;;;;;;;;5078771;28;20032;-59
2022/02/15 12:43:42;;;;;;;26.08;3.28;;;;;;;;;;5077851;28;20036;-58
2022/02/15 12:46:08;;;;;;;24.65;3.13;;;;;;;;;;5083981;28;20028;-58
2022/02/15 12:48:33;;;;;;;31.17;4.22;;;;;;;;;;5076385;28;20032;-58
2022/02/15 12:51:00;;;;;;;33.88;4.25;;;;;;;;;;5080864;28;20367;-58
2022/02/15 12:53:25;;;;;;;22.98;3.50;;;;;;;;;;5073665;28;20035;-59
2022/02/15 12:55:52;;;;;;;27.90;2.95;;;;;;;;;;5079822;28;20498;-58
2022/02/15 12:58:21;;;;;;;27.73;3.85;;;;;;;;;;5075850;28;20032;-60
2022/02/15 13:00:46;;;;;;;24.60;4.65;;;;;;;;;;5075556;28;20510;-58
2022/02/15 13:03:19;;;;;;;27.38;3.70;;;;;;;;;;5081293;28;20043;-59
2022/02/15 13:05:45;;;;;;;50.75;3.60;;;;;;;;;;5081741;28;20020;-59
2022/02/15 13:08:19;;;;;;;23.85;3.78;;;;;;;;;;5085937;28;20036;-58
2022/02/15 13:10:58;;;;;;;35.53;4.63;;;;;;;;;;5085325;28;20027;-58
2022/02/15 13:13:26;;;;;;;26.08;3.72;;;;;;;;;;5081869;28;20032;-59
2022/02/15 13:15:53;;;;;;;24.23;3.10;;;;;;;;;;5083724;28;20024;-59
2022/02/15 13:18:19;;;;;;;36.72;3.63;;;;;;;;;;5078742;28;20055;-58
2022/02/15 13:20:46;;;;;;;25.55;3.22;;;;;;;;;;5084574;28;20454;-58
2022/02/15 13:23:12;;;;;;;28.95;4.18;;;;;;;;;;5086086;28;20108;-58
2022/02/15 13:25:45;;;;;;;24.75;3.42;;;;;;;;;;5083261;28;20460;-58
2022/02/15 13:28:12;;;;;;;13.38;2.47;;;;;;;;;;5081773;28;20032;-59
2022/02/15 13:30:38;;;;;;;20.83;2.13;;;;;;;;;;5082449;28;20023;-58
2022/02/15 13:33:08;;;;;;;26.55;3.67;;;;;;;;;;5081866;28;20039;-59
2022/02/15 13:35:36;;;;;;;29.50;3.15;;;;;;;;;;5078950;28;20028;-59
2022/02/15 13:38:05;;;;;;;21.80;2.67;;;;;;;;;;5080144;28;20036;-58
2022/02/15 13:40:31;;;;;;;31.17;3.28;;;;;;;;;;5078942;28;20255;-58
2022/02/15 13:42:58;;;;;;;23.75;3.15;;;;;;;;;;5083692;28;20061;-59
2022/02/15 13:45:24;;;;;;;23.90;4.05;;;;;;;;;;5073769;28;20094;-59
2022/02/15 13:47:50;;;;;;;32.95;3.63;;;;;;;;;;5076167;28;20139;-59
2022/02/15 13:50:16;;;;;;;29.77;3.45;;;;;;;;;;5079077;28;20517;-59
2022/02/15 13:52:42;;;;;;;28.35;4.15;;;;;;;;;;5078023;28;20083;-59
2022/02/15 13:55:10;;;;;;;36.75;3.15;;;;;;;;;;5074934;28;20494;-60
2022/02/15 13:57:36;;;;;;;50.13;4.32;;;;;;;;;;5072074;28;20040;-59
2022/02/15 14:00:05;;;;;;;31.13;3.33;;;;;;;;;;5077426;28;20123;-59
2022/02/15 14:02:32;;;;;;;29.05;3.08;;;;;;;;;;5074994;28;20036;-59
2022/02/15 14:04:57;;;;;;;33.80;4.60;;;;;;;;;;5073985;28;20443;-59
2022/02/15 14:07:23;;;;;;;19.17;3.30;;;;;;;;;;5082331;28;20075;-57
2022/02/15 14:09:50;;;;;;;34.83;4.40;;;;;;;;;;5082494;28;20115;-59
2022/02/15 14:12:18;;;;;;;32.17;3.38;;;;;;;;;;5076466;28;20039;-59
2022/02/15 14:14:46;;;;;;;11.65;2.67;;;;;;;;;;5083999;28;20161;-59
2022/02/15 14:19:57;;;;;;;19.75;2.80;;;;;;;;;;5075269;28;20461;-59
2022/02/15 14:22:23;;;;;;;24.42;3.53;;;;;;;;;;5081570;28;20036;-58
2022/02/15 14:24:49;;;;;;;33.03;3.78;;;;;;;;;;5082020;28;20401;-58
2022/02/15 14:27:14;;;;;;;26.48;3.10;;;;;;;;;;5085945;28;20077;-59
2022/02/15 14:29:40;;;;;;;33.92;4.10;;;;;;;;;;5082789;28;20078;-58
2022/02/15 14:32:05;;;;;;;25.50;3.95;;;;;;;;;;5080374;28;20063;-59
2022/02/15 14:34:31;;;;;;;32.50;4.13;;;;;;;;;;5081448;28;20246;-58
2022/02/15 14:36:56;;;;;;;25.70;3.75;;;;;;;;;;5080851;28;20035;-57
2022/02/15 14:39:22;;;;;;;36.30;4.25;;;;;;;;;;5085868;28;20039;-58
2022/02/15 14:41:48;;;;;;;30.38;3.55;;;;;;;;;;5071644;28;20470;-58
2022/02/15 14:44:13;;;;;;;29.63;3.40;;;;;;;;;;5085406;28;20032;-58